createdAt,value
2022-12-03T00:00:16.972Z,6.10
2022-12-03T02:13:57.199Z,7.65
2022-12-03T02:15:59.212Z,8.60
2022-12-03T02:20:05.677Z,8.27
2022-12-03T02:22:19.158Z,7.30
2022-12-03T02:24:29.875Z,7.80
2022-12-03T02:26:31.946Z,7.43
2022-12-03T02:28:33.880Z,7.50
2022-12-03T02:32:38.243Z,7.63
2022-12-03T02:36:46.183Z,7.93
2022-12-03T02:38:49.495Z,8.55
2022-12-03T02:40:54.849Z,7.68
2022-12-03T02:42:59.730Z,8.90
2022-12-03T02:45:15.180Z,7.57
2022-12-03T02:47:17.860Z,9.55
2022-12-03T02:49:19.730Z,9.18
2022-12-03T02:51:21.661Z,8.02
2022-12-03T02:55:33.315Z,8.70
2022-12-03T02:57:39.917Z,7.75
2022-12-03T02:59:42.254Z,9.05
2022-12-03T03:01:44.214Z,8.43
2022-12-03T03:05:50.320Z,7.80
2022-12-03T03:07:52.428Z,8.00
2022-12-03T03:09:54.400Z,9.07
2022-12-03T03:13:57.961Z,7.65
2022-12-03T03:16:00.050Z,8.57
2022-12-03T03:18:02.131Z,12.13
2022-12-03T03:24:08.275Z,7.47
2022-12-03T03:28:14.836Z,7.93
2022-12-03T03:30:16.979Z,7.25
2022-12-03T03:32:18.871Z,8.68
2022-12-03T03:34:20.872Z,8.23
2022-12-03T03:38:24.959Z,8.52
2022-12-03T03:40:27.164Z,8.15
2022-12-03T03:42:29.120Z,8.98
2022-12-03T03:48:36.224Z,9.18
2022-12-03T03:50:38.167Z,8.75
2022-12-03T03:54:42.264Z,6.80
2022-12-03T03:56:44.180Z,9.60
2022-12-03T03:58:46.351Z,14.30
2022-12-03T04:00:48.502Z,14.70
2022-12-03T04:02:50.373Z,16.67
2022-12-03T04:04:52.763Z,10.68
2022-12-03T04:06:54.879Z,10.90
2022-12-03T04:08:56.968Z,11.68
2022-12-03T04:13:19.155Z,12.65
2022-12-03T04:17:22.941Z,14.57
2022-12-03T04:21:45.056Z,15.65
2022-12-03T04:23:46.905Z,13.48
2022-12-03T04:26:07.174Z,13.73
2022-12-03T04:28:28.117Z,12.27
2022-12-03T04:30:30.167Z,11.50
2022-12-03T04:33:04.032Z,10.70
2022-12-03T04:35:24.724Z,9.77
2022-12-03T04:37:26.686Z,9.75
2022-12-03T04:41:30.385Z,9.38
2022-12-03T04:45:35.820Z,11.77
2022-12-03T04:49:44.923Z,11.00
2022-12-03T04:51:46.779Z,11.07
2022-12-03T04:53:48.600Z,10.27
2022-12-03T04:55:50.442Z,10.38
2022-12-03T04:57:52.800Z,10.30
2022-12-03T04:59:54.651Z,10.80
2022-12-03T05:01:56.520Z,12.27
2022-12-03T05:03:58.398Z,10.02
2022-12-03T05:06:00.209Z,10.32
2022-12-03T05:08:02.127Z,9.38
2022-12-03T05:12:06.760Z,10.15
2022-12-03T05:16:10.690Z,12.13
2022-12-03T05:20:33.237Z,6.95
2022-12-03T05:22:35.150Z,10.20
2022-12-03T05:26:38.700Z,10.80
2022-12-03T05:28:40.558Z,11.18
2022-12-03T05:30:42.600Z,11.40
2022-12-03T05:32:44.465Z,12.38
2022-12-03T05:34:46.290Z,12.63
2022-12-03T05:36:48.142Z,12.10
2022-12-03T05:38:49.993Z,13.77
2022-12-03T05:40:51.814Z,11.43
2022-12-03T05:42:53.655Z,10.13
2022-12-03T05:44:55.761Z,11.07
2022-12-03T05:46:57.787Z,11.45
2022-12-03T05:48:59.656Z,11.43
2022-12-03T05:51:01.550Z,11.35
2022-12-03T05:53:04.282Z,9.95
2022-12-03T05:55:07.145Z,9.27
2022-12-03T05:57:09.007Z,12.25
2022-12-03T05:59:10.828Z,15.63
2022-12-03T06:01:12.660Z,16.08
2022-12-03T08:14:53.067Z,13.32
2022-12-03T08:16:55.107Z,13.13
2022-12-03T08:18:57.624Z,15.73
2022-12-03T08:20:59.549Z,14.68
2022-12-03T08:25:27.524Z,14.35
2022-12-03T08:27:30.099Z,12.35
2022-12-03T08:29:32.009Z,13.35
2022-12-03T08:33:37.182Z,11.18
2022-12-03T08:35:40.996Z,11.88
2022-12-03T08:37:42.896Z,13.35
2022-12-03T08:42:38.675Z,13.65
2022-12-03T08:44:41.241Z,12.82
2022-12-03T08:46:43.155Z,11.65
2022-12-03T08:50:52.002Z,14.20
2022-12-03T08:52:57.873Z,12.93
2022-12-03T08:55:03.513Z,12.75
2022-12-03T08:57:27.354Z,12.95
2022-12-03T08:59:32.157Z,12.65
2022-12-03T09:01:43.747Z,13.10
2022-12-03T09:03:54.663Z,16.20
2022-12-03T09:05:56.723Z,14.40
2022-12-03T09:10:00.501Z,12.48
2022-12-03T09:14:05.064Z,12.82
2022-12-03T09:16:07.752Z,11.43
2022-12-03T09:18:09.807Z,12.02
2022-12-03T09:22:15.430Z,10.43
2022-12-03T09:24:17.319Z,13.90
2022-12-03T09:28:21.148Z,11.23
2022-12-03T09:30:23.329Z,10.07
2022-12-03T09:32:25.605Z,9.07
2022-12-03T09:34:27.593Z,11.20
2022-12-03T09:38:31.719Z,11.00
2022-12-03T09:42:36.479Z,8.00
2022-12-03T09:44:38.747Z,11.05
2022-12-03T09:46:41.916Z,11.32
2022-12-03T09:48:43.857Z,12.27
2022-12-03T09:52:50.030Z,9.90
2022-12-03T09:54:52.096Z,10.13
2022-12-03T09:56:56.558Z,10.88
2022-12-03T09:58:58.522Z,10.23
2022-12-03T10:03:04.488Z,8.88
2022-12-03T10:05:06.587Z,10.70
2022-12-03T10:07:10.090Z,9.60
2022-12-03T10:09:14.650Z,10.70
2022-12-03T10:11:18.510Z,8.27
2022-12-03T10:13:29.620Z,9.88
2022-12-03T10:15:32.550Z,10.95
2022-12-03T10:17:34.492Z,10.98
2022-12-03T10:21:39.529Z,9.07
2022-12-03T10:23:41.503Z,9.15
2022-12-03T10:30:14.716Z,8.82
2022-12-03T10:32:16.623Z,9.13
2022-12-03T10:36:34.858Z,9.13
2022-12-03T10:40:39.585Z,10.13
2022-12-03T10:42:41.664Z,10.55
2022-12-03T10:44:43.555Z,10.55
2022-12-03T10:46:46.451Z,11.75
2022-12-03T10:49:20.988Z,12.23
2022-12-03T10:51:22.975Z,10.32
2022-12-03T10:55:38.558Z,7.82
2022-12-03T10:57:45.271Z,6.43
2022-12-03T10:59:47.689Z,11.02
2022-12-03T11:01:50.355Z,11.05
2022-12-03T11:03:54.095Z,7.68
2022-12-03T11:05:57.868Z,8.85
2022-12-03T11:07:59.847Z,10.05
2022-12-03T11:10:02.822Z,9.43
2022-12-03T11:12:17.796Z,10.40
2022-12-03T11:14:54.509Z,9.73
2022-12-03T11:16:56.607Z,11.38
2022-12-03T11:19:00.383Z,7.45
2022-12-03T11:21:04.055Z,10.30
2022-12-03T11:23:10.931Z,8.77
2022-12-03T11:25:24.995Z,8.80
2022-12-03T11:27:26.970Z,9.68
2022-12-03T11:31:49.782Z,6.07
2022-12-03T11:34:20.713Z,9.90
2022-12-03T11:36:42.139Z,8.40
2022-12-03T11:38:52.960Z,7.20
2022-12-03T11:41:08.641Z,8.63
2022-12-03T11:43:11.097Z,8.38
2022-12-03T11:45:33.463Z,8.35
2022-12-03T11:49:47.370Z,7.97
2022-12-03T11:51:49.745Z,7.65
2022-12-03T11:53:54.566Z,8.85
2022-12-03T11:56:09.063Z,8.95
2022-12-03T11:58:34.386Z,9.20
2022-12-03T12:00:36.516Z,6.95
2022-12-03T14:15:01.852Z,7.50
2022-12-03T14:17:04.653Z,9.02
2022-12-03T14:19:06.785Z,8.82
2022-12-03T14:23:10.440Z,12.52
2022-12-03T14:25:12.261Z,10.30
2022-12-03T14:27:14.160Z,12.70
2022-12-03T14:29:16.027Z,14.00
2022-12-03T14:31:17.987Z,11.55
2022-12-03T14:35:21.682Z,10.23
2022-12-03T14:37:23.545Z,10.30
2022-12-03T14:39:25.481Z,14.10
2022-12-03T14:41:45.889Z,11.30
2022-12-03T14:43:47.769Z,13.18
2022-12-03T14:45:49.877Z,13.50
2022-12-03T14:47:51.987Z,10.98
2022-12-03T14:49:54.185Z,10.48
2022-12-03T14:51:56.492Z,11.27
2022-12-03T14:53:58.405Z,11.07
2022-12-03T14:56:00.279Z,9.13
2022-12-03T14:58:02.319Z,10.30
2022-12-03T15:02:08.112Z,9.40
2022-12-03T15:04:11.170Z,9.48
2022-12-03T15:06:12.983Z,8.13
2022-12-03T15:08:14.889Z,8.88
2022-12-03T15:10:16.941Z,10.23
2022-12-03T15:14:20.635Z,10.27
2022-12-03T15:16:22.766Z,7.38
2022-12-03T15:18:24.664Z,8.18
2022-12-03T15:20:26.512Z,8.57
2022-12-03T15:22:28.411Z,8.07
2022-12-03T15:24:30.422Z,9.50
2022-12-03T15:28:34.284Z,9.38
2022-12-03T15:32:37.926Z,9.38
2022-12-03T15:34:39.822Z,9.48
2022-12-03T15:36:41.695Z,8.43
2022-12-03T15:38:43.556Z,8.57
2022-12-03T15:40:48.255Z,10.20
2022-12-03T15:42:51.057Z,10.43
2022-12-03T15:44:53.057Z,9.27
2022-12-03T15:46:55.158Z,10.07
2022-12-03T15:48:57.653Z,8.40
2022-12-03T15:50:59.482Z,10.50
2022-12-03T15:53:13.920Z,10.90
2022-12-03T15:55:22.126Z,9.38
2022-12-03T15:57:36.059Z,11.00
2022-12-03T15:59:38.126Z,10.90
2022-12-03T16:01:40.094Z,9.02
2022-12-03T16:03:42.135Z,11.43
2022-12-03T16:07:46.217Z,9.43
2022-12-03T16:09:48.323Z,10.50
2022-12-03T16:11:50.219Z,9.63
2022-12-03T16:13:52.071Z,9.07
2022-12-03T16:15:54.053Z,9.10
2022-12-03T16:19:57.866Z,9.13
2022-12-03T16:24:01.781Z,10.20
2022-12-03T16:26:03.745Z,10.05
2022-12-03T16:30:16.235Z,11.70
2022-12-03T16:32:18.184Z,11.13
2022-12-03T16:36:21.953Z,10.98
2022-12-03T16:40:34.524Z,9.63
2022-12-03T16:42:37.393Z,10.60
2022-12-03T16:45:11.950Z,10.98
2022-12-03T16:47:13.814Z,10.27
2022-12-03T16:49:15.770Z,11.50
2022-12-03T16:53:21.341Z,11.40
2022-12-03T16:57:48.082Z,9.88
2022-12-03T17:01:51.924Z,9.93
2022-12-03T17:03:53.812Z,10.75
2022-12-03T17:05:55.757Z,11.23
2022-12-03T17:09:59.656Z,10.93
2022-12-03T17:14:03.328Z,10.77
2022-12-03T17:16:06.874Z,9.45
2022-12-03T17:18:09.166Z,12.32
2022-12-03T17:20:12.696Z,12.30
2022-12-03T17:22:14.680Z,13.25
2022-12-03T17:26:21.335Z,11.65
2022-12-03T17:28:24.769Z,11.73
2022-12-03T17:30:26.983Z,11.95
2022-12-03T17:32:29.158Z,11.57
2022-12-03T17:34:31.083Z,11.13
2022-12-03T17:38:39.081Z,10.55
2022-12-03T17:40:41.162Z,10.98
2022-12-03T17:42:43.294Z,9.50
2022-12-03T17:44:45.181Z,11.88
2022-12-03T17:48:49.568Z,10.18
2022-12-03T17:50:51.550Z,9.82
2022-12-03T17:55:10.394Z,9.75
2022-12-03T17:57:13.393Z,10.10
2022-12-03T17:59:15.795Z,12.05
2022-12-03T18:01:17.810Z,9.23
2022-12-03T20:14:18.050Z,12.18
2022-12-03T20:16:20.582Z,12.65
2022-12-03T20:18:22.516Z,13.70
2022-12-03T20:22:26.547Z,11.07
2022-12-03T20:26:30.487Z,11.85
2022-12-03T20:28:32.323Z,10.80
2022-12-03T20:32:39.413Z,12.27
2022-12-03T20:34:45.833Z,11.00
2022-12-03T20:36:47.732Z,12.23
2022-12-03T20:40:55.348Z,12.35
2022-12-03T20:44:59.039Z,12.48
2022-12-03T20:47:01.074Z,12.00
2022-12-03T20:49:03.120Z,11.43
2022-12-03T20:51:11.163Z,11.85
2022-12-03T20:53:27.456Z,13.60
2022-12-03T20:55:31.029Z,12.68
2022-12-03T20:57:32.919Z,11.10
2022-12-03T21:01:38.496Z,13.38
2022-12-03T21:03:40.606Z,13.10
2022-12-03T21:05:45.454Z,12.88
2022-12-03T21:07:48.399Z,11.60
2022-12-03T21:09:50.811Z,12.43
2022-12-03T21:11:54.905Z,12.15
2022-12-03T21:14:01.483Z,12.02
2022-12-03T21:16:09.342Z,12.25
2022-12-03T21:18:14.451Z,10.38
2022-12-03T21:20:20.810Z,12.35
2022-12-03T21:22:27.006Z,11.80
2022-12-03T21:24:30.341Z,11.32
2022-12-03T21:26:33.382Z,12.88
2022-12-03T21:28:37.967Z,12.05
2022-12-03T21:30:42.258Z,11.88
2022-12-03T21:32:44.256Z,12.00
2022-12-03T21:36:48.706Z,9.52
2022-12-03T21:40:52.696Z,12.25
2022-12-03T21:42:54.573Z,12.45
2022-12-03T21:47:09.833Z,12.93
2022-12-03T21:49:16.852Z,11.50
2022-12-03T21:51:19.380Z,12.50
2022-12-03T21:53:21.382Z,11.18
2022-12-03T21:55:23.411Z,12.13
2022-12-03T21:57:25.263Z,9.02
2022-12-03T22:01:29.069Z,12.10
2022-12-03T22:03:31.163Z,11.40
2022-12-03T22:05:33.049Z,11.93
2022-12-03T22:09:37.677Z,12.75
2022-12-03T22:11:39.607Z,12.25
2022-12-03T22:15:43.703Z,10.77
2022-12-03T22:17:45.677Z,12.15
2022-12-03T22:19:47.563Z,12.88
2022-12-03T22:23:51.650Z,13.52
2022-12-03T22:26:06.559Z,11.70
2022-12-03T22:28:08.454Z,11.40
2022-12-03T22:32:12.396Z,11.38
2022-12-03T22:34:14.260Z,10.82
2022-12-03T22:38:24.408Z,10.95
2022-12-03T22:40:26.256Z,12.88
2022-12-03T22:44:31.781Z,10.48
2022-12-03T22:46:33.979Z,11.55
2022-12-03T22:48:36.496Z,10.20
2022-12-03T22:50:43.298Z,11.25
2022-12-03T22:52:45.134Z,12.00
2022-12-03T22:56:48.880Z,11.25
2022-12-03T22:59:06.077Z,11.95
2022-12-03T23:01:10.388Z,13.13
2022-12-03T23:03:12.527Z,12.50
2022-12-03T23:05:14.702Z,12.75
2022-12-03T23:07:16.616Z,11.90
2022-12-03T23:09:18.519Z,15.95
2022-12-03T23:13:22.552Z,12.57
2022-12-03T23:15:24.434Z,12.15
2022-12-03T23:19:28.314Z,12.07
2022-12-03T23:21:34.437Z,12.85
2022-12-03T23:23:36.511Z,14.38
2022-12-03T23:25:38.644Z,13.38
2022-12-03T23:27:40.770Z,14.55
2022-12-03T23:29:42.659Z,14.30
2022-12-03T23:33:47.286Z,18.58
2022-12-03T23:35:49.421Z,17.23
2022-12-03T23:37:51.411Z,16.77
2022-12-03T23:39:53.604Z,15.93
2022-12-03T23:41:55.785Z,15.32
2022-12-03T23:43:58.124Z,14.65
2022-12-03T23:46:05.661Z,14.23
2022-12-03T23:48:07.703Z,15.07
2022-12-03T23:50:11.146Z,16.20
2022-12-03T23:52:13.133Z,16.17
2022-12-03T23:54:15.075Z,17.45
2022-12-03T23:56:19.413Z,17.92
2022-12-03T23:58:21.280Z,20.17
